Time;durP1;ratioP1;P1;durP2;ratioP2;P2;SDS_P1;SDS_P2;PMS_P1;PMS_P2;Temp;Humidity;BMP_temperature;BMP_pressure;BME280_temperature;BME280_humidity;BME280_pressure;Samples;Min_cycle;Max_cycle;Signal;HPM_P1;HPM_P2
2021/06/27 00:01:10;;;;;;;;;19.25;16.50;;;;;22.51;56.83;101059.06;4997089;28;45472;-83
2021/06/27 00:03:36;;;;;;;;;18.50;17.00;;;;;22.47;57.08;101059.94;4998423;28;45545;-81
2021/06/27 00:06:03;;;;;;;;;14.50;13.25;;;;;22.42;56.79;101056.41;4997215;27;45553;-82
2021/06/27 00:08:29;;;;;;;;;17.50;15.75;;;;;22.42;56.73;101077.50;4997324;28;45355;-82
2021/06/27 00:10:58;;;;;;;;;15.50;15.50;;;;;22.43;57.37;101076.63;4995920;28;45329;-82
2021/06/27 00:13:25;;;;;;;;;14.50;13.25;;;;;22.43;57.37;101087.19;4995880;27;45424;-82
2021/06/27 00:15:51;;;;;;;;;17.75;16.75;;;;;22.40;58.13;101079.28;4995318;27;45326;-82
2021/06/27 00:18:20;;;;;;;;;13.75;13.75;;;;;22.38;58.53;101070.47;4995463;28;45245;-81
2021/06/27 00:20:49;;;;;;;;;14.00;10.50;;;;;22.31;58.85;101080.13;4994941;28;45307;-82
2021/06/27 00:23:17;;;;;;;;;16.25;14.75;;;;;22.31;59.35;101077.50;4995426;28;45397;-82
2021/06/27 00:25:43;;;;;;;;;17.50;15.50;;;;;22.30;58.93;101080.16;4995518;28;45422;-81
2021/06/27 00:28:09;;;;;;;;;15.25;15.00;;;;;22.30;58.89;101074.88;4995051;28;45725;-81
2021/06/27 00:30:37;;;;;;;;;13.25;13.25;;;;;22.29;59.42;101076.63;4994877;28;45758;-81
2021/06/27 00:33:03;;;;;;;;;17.75;17.25;;;;;22.31;59.31;101087.16;4995208;27;45328;-82
2021/06/27 00:35:30;;;;;;;;;16.25;13.75;;;;;22.29;59.41;101104.75;4995853;27;45323;-81
2021/06/27 00:37:55;;;;;;;;;16.25;16.00;;;;;22.25;59.64;101103.84;4994963;28;45366;-81
2021/06/27 00:40:24;;;;;;;;;16.75;16.75;;;;;22.23;60.24;101101.22;4995001;27;45444;-82
2021/06/27 00:42:50;;;;;;;;;14.75;14.75;;;;;22.24;60.04;101104.75;4996353;27;45234;-82
2021/06/27 00:45:19;;;;;;;;;18.50;16.00;;;;;22.23;60.60;101103.00;4996374;28;45615;-80
2021/06/27 00:47:45;;;;;;;;;20.50;19.25;;;;;22.24;59.64;101110.91;4995060;28;45338;-81
2021/06/27 00:50:19;;;;;;;;;19.00;17.50;;;;;22.24;60.39;101112.66;4995160;27;45717;-81
2021/06/27 00:52:45;;;;;;;;;13.00;13.00;;;;;22.25;60.23;101114.41;4995235;28;45390;-82
2021/06/27 00:55:12;;;;;;;;;15.50;15.50;;;;;22.17;60.37;101111.78;4982403;28;45951;-82
2021/06/27 00:57:38;;;;;;;;;16.50;16.00;;;;;22.17;61.01;101109.16;4999653;27;45448;-82
2021/06/27 01:00:11;;;;;;;;;15.50;14.50;;;;;22.18;60.44;101102.09;4994976;27;45586;-80
2021/06/27 01:02:37;;;;;;;;;17.00;16.50;;;;;22.15;61.48;101104.72;4976987;28;45402;-81
2021/06/27 01:05:10;;;;;;;;;15.50;14.50;;;;;22.16;61.52;101098.56;4995594;27;45231;-81
2021/06/27 01:07:36;;;;;;;;;14.75;14.75;;;;;22.13;62.18;101090.69;4977410;28;47346;-81
2021/06/27 01:10:02;;;;;;;;;16.00;15.50;;;;;22.15;62.33;101079.25;4995445;27;45980;-81
2021/06/27 01:12:28;;;;;;;;;15.25;14.00;;;;;22.11;62.04;101045.81;4977826;28;45346;-81
2021/06/27 01:14:55;;;;;;;;;17.75;17.50;;;;;22.15;62.12;101041.44;4977471;28;45380;-80
2021/06/27 01:17:21;;;;;;;;;20.50;17.50;;;;;22.17;62.17;101031.75;4976947;28;47821;-83
2021/06/27 01:19:47;;;;;;;;;14.25;14.00;;;;;22.11;61.64;101035.28;4994404;27;45861;-82
2021/06/27 01:22:13;;;;;;;;;13.50;13.25;;;;;22.13;62.03;101043.22;4995061;28;45330;-81
2021/06/27 01:24:40;;;;;;;;;16.50;14.75;;;;;22.14;62.57;101042.34;4977853;28;45360;-81
2021/06/27 01:27:09;;;;;;;;;20.00;15.50;;;;;22.10;62.11;101039.69;4977465;28;47870;-81
2021/06/27 01:29:35;;;;;;;;;15.50;13.25;;;;;22.10;62.27;101044.97;4977377;28;45327;-81
2021/06/27 01:32:01;;;;;;;;;20.50;17.25;;;;;22.06;62.79;101045.81;4977873;28;45366;-81
2021/06/27 01:34:27;;;;;;;;;18.50;16.75;;;;;22.07;61.92;101049.34;4978073;28;45461;-81
2021/06/27 01:36:53;;;;;;;;;14.00;14.00;;;;;22.02;61.88;101048.47;4994696;27;46026;-81
2021/06/27 01:39:18;;;;;;;;;16.75;15.25;;;;;21.97;62.77;101050.22;4994371;28;45406;-81
2021/06/27 01:41:52;;;;;;;;;22.00;16.50;;;;;21.93;62.68;101050.22;4994178;28;45343;-82
2021/06/27 01:44:18;;;;;;;;;19.25;15.50;;;;;21.90;62.86;101051.97;4977074;28;45556;-81
2021/06/27 01:46:45;;;;;;;;;19.75;16.75;;;;;21.85;62.63;101061.63;4997831;28;46043;-81
2021/06/27 01:49:13;;;;;;;;;20.00;16.50;;;;;21.81;62.71;101063.38;4995887;27;45912;-81
2021/06/27 01:51:40;;;;;;;;;19.25;17.00;;;;;21.73;62.95;101050.16;4994432;27;45406;-81
2021/06/27 01:54:06;;;;;;;;;18.25;17.00;;;;;21.69;63.34;101044.88;4994419;27;45302;-81
2021/06/27 01:56:33;;;;;;;;;18.00;17.00;;;;;21.69;63.29;101042.25;4994268;28;45598;-81
2021/06/27 01:59:02;;;;;;;;;17.00;16.50;;;;;21.66;63.56;101027.31;4994500;28;45783;-81
2021/06/27 02:01:37;;;;;;;;;15.50;15.50;;;;;21.65;63.18;101023.78;4994918;27;45335;-81
2021/06/27 02:04:04;;;;;;;;;17.75;17.75;;;;;21.65;63.31;101030.81;4995191;28;45252;-80
2021/06/27 02:06:33;;;;;;;;;19.00;17.00;;;;;21.64;63.25;101029.97;4980946;28;45786;-80
2021/06/27 02:09:03;;;;;;;;;19.00;15.50;;;;;21.62;63.44;101017.63;4999113;27;45870;-80
2021/06/27 02:11:29;;;;;;;;;16.75;16.00;;;;;21.64;63.48;101014.16;4994759;28;45422;-81
2021/06/27 02:13:56;;;;;;;;;17.00;16.25;;;;;21.64;63.72;101008.88;4994513;27;45592;-81
2021/06/27 02:16:23;;;;;;;;;17.50;14.50;;;;;21.64;63.87;101002.72;4993730;28;46075;-81
2021/06/27 02:18:50;;;;;;;;;17.75;15.75;;;;;21.64;63.18;101000.97;4993647;28;45335;-81
2021/06/27 02:21:25;;;;;;;;;16.75;15.50;;;;;21.63;63.59;101001.84;4994063;28;45403;-81
2021/06/27 02:23:51;;;;;;;;;20.00;18.50;;;;;21.61;63.51;101002.69;4993862;28;45371;-81
2021/06/27 02:26:18;;;;;;;;;22.00;17.75;;;;;21.58;63.71;101000.03;4993608;28;45317;-81
2021/06/27 02:28:47;;;;;;;;;24.25;16.25;;;;;21.57;63.98;100988.63;4993920;28;45306;-81
2021/06/27 02:31:13;;;;;;;;;20.00;17.25;;;;;21.53;63.66;100971.06;4994332;28;45377;-81
2021/06/27 02:33:40;;;;;;;;;24.25;19.00;;;;;21.53;64.37;100963.16;4976446;28;45489;-81
2021/06/27 02:36:06;;;;;;;;;18.75;17.75;;;;;21.52;63.86;100960.50;4994161;27;46080;-80
2021/06/27 02:38:33;;;;;;;;;18.00;15.25;;;;;21.53;64.17;100954.34;4994161;28;45338;-80
2021/06/27 02:40:59;;;;;;;;;19.25;17.00;;;;;21.47;63.78;100947.31;4977117;28;45271;-81
2021/06/27 02:43:25;;;;;;;;;17.50;17.50;;;;;21.46;64.25;100940.28;4994658;28;45990;-81
2021/06/27 02:45:53;;;;;;;;;21.50;17.75;;;;;21.46;64.48;100941.19;4997543;27;45468;-80
2021/06/27 02:48:19;;;;;;;;;19.75;17.75;;;;;21.50;64.27;100937.66;4993867;28;45400;-80
2021/06/27 02:50:45;;;;;;;;;16.00;15.25;;;;;21.43;63.85;100913.97;4993774;27;45437;-80
2021/06/27 02:53:11;;;;;;;;;16.50;15.25;;;;;21.43;64.08;100924.50;4994292;28;45635;-80
2021/06/27 02:55:37;;;;;;;;;20.25;19.00;;;;;21.45;64.47;100923.63;4976044;28;46239;-80
2021/06/27 02:58:04;;;;;;;;;19.75;15.50;;;;;21.44;64.38;100923.59;4976245;28;45672;-80
2021/06/27 03:00:30;;;;;;;;;16.75;16.25;;;;;21.45;64.09;100920.09;4976607;28;45365;-80
2021/06/27 03:02:57;;;;;;;;;16.75;15.25;;;;;21.41;64.82;100907.81;4976589;28;45638;-81
2021/06/27 03:05:23;;;;;;;;;19.00;17.75;;;;;21.47;64.25;100915.72;4961611;28;46781;-81
2021/06/27 03:07:49;;;;;;;;;15.25;14.50;;;;;21.45;63.81;100904.28;4977053;28;45406;-81
2021/06/27 03:10:18;;;;;;;;;19.25;18.25;;;;;21.37;64.02;100887.59;4977253;28;45422;-81
2021/06/27 03:12:46;;;;;;;;;17.00;15.50;;;;;21.40;64.28;100893.75;4994588;28;45518;-80
2021/06/27 03:15:14;;;;;;;;;18.25;15.75;;;;;21.39;63.79;100893.75;4978259;28;46842;-81
2021/06/27 03:17:40;;;;;;;;;18.25;16.00;;;;;21.46;64.24;100912.22;4998019;27;45436;-81
2021/06/27 03:20:08;;;;;;;;;15.25;13.25;;;;;21.47;64.21;100911.34;5000171;28;45453;-81
2021/06/27 03:22:34;;;;;;;;;16.50;15.00;;;;;21.39;63.89;100912.19;4997233;28;45498;-81
2021/06/27 03:25:00;;;;;;;;;14.00;14.00;;;;;21.36;64.35;100918.34;4996522;27;46334;-81
2021/06/27 03:27:27;;;;;;;;;16.50;16.50;;;;;21.39;64.44;100914.81;4997044;27;45666;-81
2021/06/27 03:29:52;;;;;;;;;17.25;16.25;;;;;21.38;63.78;100918.34;4978895;28;45391;-81
2021/06/27 03:32:18;;;;;;;;;17.25;15.50;;;;;21.36;64.27;100917.44;4996996;28;45630;-81
2021/06/27 03:34:44;;;;;;;;;17.50;14.25;;;;;21.32;64.13;100916.56;4995899;28;45397;-81
2021/06/27 03:37:10;;;;;;;;;16.50;15.75;;;;;21.31;64.32;100925.34;4978831;28;45783;-81
2021/06/27 03:39:36;;;;;;;;;16.00;15.00;;;;;21.29;64.03;100913.91;4996189;27;45408;-82
2021/06/27 03:42:03;;;;;;;;;16.00;13.75;;;;;21.32;64.36;100916.56;4996736;27;45406;-82
2021/06/27 03:44:29;;;;;;;;;17.75;16.25;;;;;21.33;64.65;100923.59;4996411;28;45271;-81
2021/06/27 03:46:56;;;;;;;;;14.25;14.25;;;;;21.30;64.01;100905.16;4978357;28;45259;-80
2021/06/27 03:49:22;;;;;;;;;21.25;18.00;;;;;21.27;64.43;100895.50;4996702;27;45449;-80
2021/06/27 03:51:48;;;;;;;;;19.25;16.75;;;;;21.30;64.75;100889.34;4978398;28;45429;-81
2021/06/27 03:54:14;;;;;;;;;20.00;17.00;;;;;21.34;64.39;100894.63;4995773;28;45401;-81
2021/06/27 03:56:40;;;;;;;;;18.75;18.25;;;;;21.39;64.17;100888.50;4996119;27;45731;-81
2021/06/27 03:59:06;;;;;;;;;20.00;19.75;;;;;21.41;63.99;100889.38;4996542;27;45381;-81
2021/06/27 04:01:32;;;;;;;;;20.50;19.00;;;;;21.40;63.98;100899.00;4997449;28;45648;-81
2021/06/27 04:03:58;;;;;;;;;27.75;22.25;;;;;21.34;64.20;100901.66;4996118;28;45288;-81
2021/06/27 04:06:24;;;;;;;;;21.75;17.75;;;;;21.34;64.55;100910.41;4979205;28;45675;-81
2021/06/27 04:08:50;;;;;;;;;21.25;21.25;;;;;21.36;64.14;100914.81;4978367;28;45418;-81
2021/06/27 04:11:15;;;;;;;;;22.25;22.25;;;;;21.34;64.17;100918.31;4978392;28;45583;-81
2021/06/27 04:13:41;;;;;;;;;21.50;21.25;;;;;21.33;64.34;100918.31;4995490;28;46193;-81
2021/06/27 04:16:07;;;;;;;;;19.50;18.75;;;;;21.31;64.49;100918.34;4995578;27;45953;-80
2021/06/27 04:18:36;;;;;;;;;26.50;23.25;;;;;21.27;64.36;100927.09;4978027;28;45399;-81
2021/06/27 04:21:03;;;;;;;;;20.00;19.25;;;;;21.28;64.55;100954.28;4996608;27;45559;-80
2021/06/27 04:23:30;;;;;;;;;17.50;16.75;;;;;21.29;65.04;100961.31;4996427;27;46095;-81
2021/06/27 04:25:56;;;;;;;;;17.50;16.75;;;;;21.27;64.85;100948.16;4996409;28;45693;-80
2021/06/27 04:28:22;;;;;;;;;16.75;16.00;;;;;21.28;64.69;100934.13;4996453;28;45401;-81
2021/06/27 04:30:48;;;;;;;;;16.75;15.75;;;;;21.29;64.86;100937.63;4995246;27;45508;-79
2021/06/27 04:33:14;;;;;;;;;16.25;15.75;;;;;21.31;65.05;100933.25;4995084;28;46151;-79
2021/06/27 04:35:41;;;;;;;;;24.00;18.25;;;;;21.36;64.94;100933.25;4994863;28;45721;-80
2021/06/27 04:38:14;;;;;;;;;17.50;17.00;;;;;21.35;64.99;100921.84;4978087;28;45223;-80
2021/06/27 04:40:40;;;;;;;;;30.00;23.75;;;;;21.39;64.47;100920.97;4995743;28;45529;-79
2021/06/27 04:43:06;;;;;;;;;26.50;22.50;;;;;21.44;64.77;100915.69;4994939;27;46195;-80
2021/06/27 04:45:32;;;;;;;;;30.75;26.50;;;;;21.46;64.90;100908.69;4994995;28;45987;-80
2021/06/27 04:48:00;;;;;;;;;22.50;19.50;;;;;21.42;65.09;100915.72;4995424;28;45456;-80
2021/06/27 04:50:26;;;;;;;;;20.00;19.50;;;;;21.45;64.70;100897.28;4995385;27;45384;-80
2021/06/27 04:52:52;;;;;;;;;23.50;21.00;;;;;21.43;64.49;100899.03;4996347;27;45763;-80
2021/06/27 04:55:19;;;;;;;;;24.25;23.75;;;;;21.47;64.04;100900.81;4995198;28;45405;-80
2021/06/27 04:57:45;;;;;;;;;24.50;22.00;;;;;21.47;64.82;100910.44;4995405;27;45350;-80
2021/06/27 05:00:11;;;;;;;;;22.50;21.25;;;;;21.45;64.96;100912.19;4978677;28;45555;-80
2021/06/27 05:02:37;;;;;;;;;21.50;19.75;;;;;21.41;64.91;100915.72;4994210;28;47241;-80
2021/06/27 05:05:04;;;;;;;;;20.00;19.25;;;;;21.42;64.30;100920.97;4994702;28;45310;-80
2021/06/27 05:07:29;;;;;;;;;22.75;22.00;;;;;21.40;64.73;100909.56;4977303;28;45275;-80
2021/06/27 05:09:56;;;;;;;;;25.50;20.00;;;;;21.42;64.77;100918.34;4994714;27;45704;-80
2021/06/27 05:12:26;;;;;;;;;18.25;17.25;;;;;21.39;64.48;100918.31;4994708;28;45406;-80
2021/06/27 05:14:52;;;;;;;;;22.75;18.50;;;;;21.38;64.97;100919.19;4994279;27;45745;-80
2021/06/27 05:17:18;;;;;;;;;20.25;18.75;;;;;21.44;64.75;100907.78;4997191;27;45330;-78
2021/06/27 05:19:43;;;;;;;;;18.50;17.75;;;;;21.45;65.07;100913.09;4996515;27;45649;-80
2021/06/27 05:22:09;;;;;;;;;30.25;26.25;;;;;21.48;64.61;100906.94;4994594;27;45263;-81
2021/06/27 05:24:35;;;;;;;;;23.25;20.00;;;;;21.46;64.82;100900.78;4994125;27;45182;-79
2021/06/27 05:27:00;;;;;;;;;26.50;24.75;;;;;21.54;64.79;100908.69;4994972;28;45385;-79
2021/06/27 05:29:26;;;;;;;;;22.00;20.25;;;;;21.56;64.73;100905.19;4994885;27;45230;-80
2021/06/27 05:31:52;;;;;;;;;21.25;18.25;;;;;21.53;64.76;100913.09;4994082;28;45426;-79
2021/06/27 05:34:17;;;;;;;;;23.25;22.25;;;;;21.48;65.02;100907.81;4994991;28;45395;-79
2021/06/27 05:36:43;;;;;;;;;21.00;20.25;;;;;21.49;64.56;100914.81;4993934;28;45390;-79
2021/06/27 05:39:10;;;;;;;;;23.50;22.00;;;;;21.50;64.92;100916.59;4994267;27;45533;-79
2021/06/27 05:41:38;;;;;;;;;23.00;22.25;;;;;21.54;64.75;100917.50;4994153;28;45459;-80
2021/06/27 05:44:04;;;;;;;;;26.25;19.25;;;;;21.50;64.67;100915.72;4994316;28;45391;-80
2021/06/27 05:46:31;;;;;;;;;22.25;19.50;;;;;21.52;64.56;100907.81;4996899;28;45304;-80
2021/06/27 05:48:57;;;;;;;;;20.50;19.25;;;;;21.55;64.81;100903.41;4998335;27;45576;-80
2021/06/27 05:51:22;;;;;;;;;22.25;20.00;;;;;21.56;64.54;100910.44;4994140;27;46106;-80
2021/06/27 05:53:48;;;;;;;;;20.00;19.00;;;;;21.61;64.69;100907.84;4993994;27;45288;-80
2021/06/27 05:56:18;;;;;;;;;21.50;17.00;;;;;21.60;64.59;100911.34;4994299;27;45426;-80
2021/06/27 05:58:44;;;;;;;;;22.75;20.25;;;;;21.63;64.59;100919.28;4994976;28;45355;-81
2021/06/27 06:01:15;;;;;;;;;59.50;45.75;;;;;21.65;64.28;100905.22;4976177;28;45716;-81
2021/06/27 06:03:42;;;;;;;;;46.00;37.25;;;;;21.67;64.50;100909.59;4976514;28;45915;-81
2021/06/27 06:06:10;;;;;;;;;24.50;23.50;;;;;21.68;64.05;100911.38;4994985;28;45224;-80
2021/06/27 06:08:40;;;;;;;;;20.25;19.25;;;;;21.68;63.98;100911.38;4995466;27;45169;-80
2021/06/27 06:11:07;;;;;;;;;27.50;23.25;;;;;21.68;63.76;100921.91;4993768;28;46428;-82
2021/06/27 06:13:32;;;;;;;;;30.00;27.25;;;;;21.71;63.74;100916.66;4994048;27;45265;-81
2021/06/27 06:15:58;;;;;;;;;26.75;24.50;;;;;21.68;64.34;100912.25;4994553;28;45296;-88
2021/06/27 06:18:23;;;;;;;;;19.00;19.00;;;;;21.73;63.86;100922.81;4976490;28;45334;-79
2021/06/27 06:20:49;;;;;;;;;20.25;18.25;;;;;21.73;64.06;100910.50;4992818;28;45346;-87
2021/06/27 06:23:15;;;;;;;;;27.25;20.75;;;;;21.79;63.83;100914.88;4993889;28;45239;-83
2021/06/27 06:25:41;;;;;;;;;23.25;20.50;;;;;21.84;63.50;100909.59;4991087;28;45445;-80
2021/06/27 06:28:06;;;;;;;;;23.25;20.00;;;;;21.88;63.93;100914.00;4973652;28;45787;-78
2021/06/27 06:30:32;;;;;;;;;23.25;22.50;;;;;21.88;63.43;100909.59;4990124;27;46122;-78
2021/06/27 06:32:57;;;;;;;;;26.50;23.50;;;;;21.96;63.54;100906.97;4991773;28;45543;-78
2021/06/27 06:35:23;;;;;;;;;21.50;21.50;;;;;22.00;63.69;100919.28;4992300;28;45529;-81
2021/06/27 06:37:49;;;;;;;;;27.75;26.00;;;;;22.08;63.38;100908.75;4993312;28;45363;-82
2021/06/27 06:40:15;;;;;;;;;30.00;22.25;;;;;22.09;62.94;100921.91;4994806;27;46316;-84
2021/06/27 06:42:40;;;;;;;;;23.25;21.25;;;;;22.10;63.53;100912.22;4978976;28;45430;-85
2021/06/27 06:45:06;;;;;;;;;23.00;21.50;;;;;22.15;63.21;100913.09;4992491;27;45406;-84
2021/06/27 06:47:32;;;;;;;;;28.75;23.25;;;;;22.17;63.42;100919.25;4984663;28;45585;-85
2021/06/27 06:49:58;;;;;;;;;19.50;18.75;;;;;22.19;62.85;100922.75;4992793;28;45391;-89
2021/06/27 06:52:24;;;;;;;;;33.75;32.25;;;;;22.21;62.88;100928.03;4997551;28;45655;-92
2021/06/27 06:54:50;;;;;;;;;28.25;25.75;;;;;22.21;62.84;100921.00;5002955;27;45216;-86
2021/06/27 06:57:16;;;;;;;;;29.75;27.00;;;;;22.24;62.32;100921.00;4993134;28;45482;-86
2021/06/27 06:59:41;;;;;;;;;30.75;24.75;;;;;22.28;63.07;100924.50;4992751;28;45557;-84
2021/06/27 07:02:07;;;;;;;;;25.75;24.25;;;;;22.29;62.42;100922.75;4993214;28;45599;-84
2021/06/27 07:04:33;;;;;;;;;26.50;23.25;;;;;22.30;62.71;100922.75;4991259;28;45497;-85
2021/06/27 07:06:59;;;;;;;;;28.50;28.50;;;;;22.32;62.66;100920.09;4977776;28;47001;-88
2021/06/27 07:09:25;;;;;;;;;28.25;24.50;;;;;22.34;62.87;100920.97;4975987;28;46970;-87
2021/06/27 07:11:51;;;;;;;;;54.75;45.50;;;;;22.32;62.67;100923.63;4994470;28;45417;-81
2021/06/27 07:14:16;;;;;;;;;51.75;40.75;;;;;22.36;62.24;100919.22;4994137;28;45746;-83
2021/06/27 07:16:42;;;;;;;;;28.75;25.50;;;;;22.39;62.14;100920.09;4997495;28;45435;-85
2021/06/27 07:19:07;;;;;;;;;31.50;30.75;;;;;22.42;62.39;100919.22;4996416;28;45470;-86
2021/06/27 07:21:33;;;;;;;;;45.50;38.75;;;;;22.46;62.13;100931.53;4994818;28;45356;-87
2021/06/27 07:23:59;;;;;;;;;41.50;35.75;;;;;22.51;62.13;100928.88;4996554;28;45339;-85
2021/06/27 07:26:25;;;;;;;;;43.50;36.25;;;;;22.50;61.71;100928.03;4995712;28;45619;-88
2021/06/27 07:28:50;;;;;;;;;44.50;36.25;;;;;22.60;61.73;100926.22;4992436;28;45586;-77
2021/06/27 07:31:17;;;;;;;;;55.75;45.50;;;;;22.67;61.73;100930.63;4992442;28;45283;-84
2021/06/27 07:33:42;;;;;;;;;46.50;38.25;;;;;22.76;61.63;100931.44;4991116;28;45548;-80
2021/06/27 07:36:08;;;;;;;;;107.50;98.25;;;;;22.86;61.36;100926.13;4992113;28;45589;-82
2021/06/27 07:38:34;;;;;;;;;111.50;107.50;;;;;22.97;61.13;100919.91;4991015;28;45428;-77
2021/06/27 07:41:00;;;;;;;;;40.75;35.25;;;;;23.00;60.83;100917.25;4990863;28;45370;-77
2021/06/27 07:43:25;;;;;;;;;28.50;25.25;;;;;23.11;60.75;100919.84;4991166;27;45345;-77
2021/06/27 07:45:51;;;;;;;;;24.50;19.50;;;;;23.17;60.59;100918.03;4973684;28;45514;-77
2021/06/27 07:48:17;;;;;;;;;28.50;27.75;;;;;23.21;60.46;100910.13;4992608;28;46186;-88
2021/06/27 07:50:43;;;;;;;;;25.75;23.50;;;;;23.22;60.20;100904.81;4993386;28;45611;-86
2021/06/27 07:53:08;;;;;;;;;19.50;19.50;;;;;23.26;60.10;100903.06;4993020;28;45328;-81
2021/06/27 07:55:35;;;;;;;;;35.75;31.50;;;;;23.33;59.94;100910.91;4990967;28;45515;-80
2021/06/27 07:58:02;;;;;;;;;37.25;32.75;;;;;23.38;59.87;100913.53;4991004;27;45641;-82
2021/06/27 08:00:30;;;;;;;;;25.00;22.25;;;;;23.44;59.40;100902.03;4975265;28;45485;-81
2021/06/27 08:03:00;;;;;;;;;28.00;26.25;;;;;23.45;59.92;100890.59;4996276;28;45334;-81
2021/06/27 08:05:26;;;;;;;;;28.00;25.25;;;;;23.50;59.06;100889.66;4977825;28;45563;-82
2021/06/27 08:07:51;;;;;;;;;28.25;26.25;;;;;23.54;59.51;100887.88;4995621;28;45343;-83
2021/06/27 08:10:17;;;;;;;;;26.75;26.75;;;;;23.54;58.91;100881.72;4995501;28;45389;-84
2021/06/27 08:12:42;;;;;;;;;29.00;28.00;;;;;23.59;59.10;100877.28;4977464;28;45375;-83
2021/06/27 08:15:17;;;;;;;;;21.75;20.50;;;;;23.58;58.66;100883.47;4995615;27;45437;-83
2021/06/27 08:17:42;;;;;;;;;25.75;25.00;;;;;23.64;58.75;100879.00;4977726;28;46478;-82
2021/06/27 08:20:09;;;;;;;;;26.25;26.00;;;;;23.69;58.86;100872.78;4978412;28;45277;-84
2021/06/27 08:22:34;;;;;;;;;37.25;30.50;;;;;23.74;58.37;100878.91;4977212;28;45430;-82
2021/06/27 08:25:00;;;;;;;;;38.25;35.25;;;;;23.81;58.48;100885.91;4996877;27;45608;-83
2021/06/27 08:27:26;;;;;;;;;27.75;26.00;;;;;23.77;58.47;100887.69;4995962;27;46084;-82
2021/06/27 08:29:51;;;;;;;;;30.25;28.75;;;;;23.73;57.65;100895.66;4977160;28;45411;-82
2021/06/27 08:32:17;;;;;;;;;42.50;37.75;;;;;23.67;58.18;100896.59;4995151;27;45387;-82
2021/06/27 08:34:42;;;;;;;;;27.25;24.25;;;;;23.68;58.25;100901.00;4978305;28;45383;-83
2021/06/27 08:37:08;;;;;;;;;51.25;43.00;;;;;23.65;58.08;100896.59;4995585;27;45413;-82
2021/06/27 08:39:34;;;;;;;;;28.25;27.75;;;;;23.64;57.61;100899.25;4995766;27;45289;-83
2021/06/27 08:41:59;;;;;;;;;26.00;25.00;;;;;23.62;58.13;100903.66;4977817;28;45371;-82
2021/06/27 08:44:26;;;;;;;;;24.25;23.75;;;;;23.63;58.29;100908.97;4996160;27;45687;-84
2021/06/27 08:46:54;;;;;;;;;33.25;27.75;;;;;23.68;58.02;100902.75;4978513;28;46927;-84
2021/06/27 08:49:21;;;;;;;;;41.75;36.25;;;;;23.68;58.29;100889.53;4978805;28;45354;-85
2021/06/27 08:51:46;;;;;;;;;42.00;34.00;;;;;23.73;58.68;100896.53;4995401;27;45440;-83
2021/06/27 08:54:12;;;;;;;;;41.75;33.75;;;;;23.77;58.19;100892.09;4978401;28;45445;-83
2021/06/27 08:56:39;;;;;;;;;27.50;27.50;;;;;23.80;57.73;100884.13;4979104;28;47021;-82
2021/06/27 08:59:26;;;;;;;;;29.00;26.75;;;;;23.81;58.15;100896.47;4981678;28;45435;-84
2021/06/27 09:01:58;;;;;;;;;27.25;24.25;;;;;23.81;58.40;100897.34;4991621;28;45592;-78
2021/06/27 09:04:24;;;;;;;;;30.00;25.00;;;;;23.78;58.48;100893.84;4960721;28;45419;-81
2021/06/27 09:06:50;;;;;;;;;24.75;24.00;;;;;23.81;58.13;100899.97;4976845;28;47659;-83
2021/06/27 09:09:20;;;;;;;;;28.25;26.25;;;;;23.57;59.38;100916.06;4995673;27;45320;-81
2021/06/27 09:12:06;;;;;;;;;29.25;26.50;;;;;23.39;59.57;100923.22;4976216;28;45388;-83
2021/06/27 09:14:40;;;;;;;;;31.00;28.75;;;;;23.26;60.19;100919.78;4994950;27;45885;-84
2021/06/27 09:17:19;;;;;;;;;32.00;29.50;;;;;23.18;60.46;100917.16;4978832;28;46955;-87
2021/06/27 09:19:50;;;;;;;;;25.00;23.50;;;;;23.14;60.62;100917.19;4996349;28;45262;-83
2021/06/27 09:22:17;;;;;;;;;25.25;24.00;;;;;23.08;60.17;100917.22;5025470;28;45526;-82
2021/06/27 09:24:45;;;;;;;;;24.75;23.25;;;;;22.95;60.98;100912.00;4996565;28;45312;-83
2021/06/27 09:27:29;;;;;;;;;25.50;23.00;;;;;22.94;60.77;100920.81;4996193;27;46176;-82
2021/06/27 09:29:55;;;;;;;;;18.25;18.25;;;;;22.89;59.81;100925.25;4997171;28;45254;-80
2021/06/27 09:32:25;;;;;;;;;22.25;20.25;;;;;22.80;59.31;100930.53;4958838;28;45197;-79
2021/06/27 09:34:51;;;;;;;;;18.50;17.00;;;;;22.72;59.68;100928.81;4975538;28;45331;-81
2021/06/27 09:37:27;;;;;;;;;26.00;23.25;;;;;22.67;60.05;100933.25;4968345;28;45431;-83
2021/06/27 09:40:01;;;;;;;;;21.75;20.25;;;;;22.62;60.72;100927.09;4998475;28;45249;-83
2021/06/27 09:42:31;;;;;;;;;24.50;24.00;;;;;22.64;60.97;100935.88;5002391;28;45322;-86
2021/06/27 09:45:08;;;;;;;;;17.00;15.00;;;;;22.57;61.33;100942.03;5000714;27;45237;-86
2021/06/27 09:47:35;;;;;;;;;23.00;21.00;;;;;22.56;61.53;100950.88;4976777;28;47785;-81
2021/06/27 09:50:28;;;;;;;;;24.00;23.00;;;;;22.53;61.58;100941.19;4994715;27;45473;-79
2021/06/27 09:52:54;;;;;;;;;23.50;21.50;;;;;22.82;61.35;100949.91;4975576;28;45508;-79
2021/06/27 09:55:32;;;;;;;;;42.00;28.00;;;;;23.13;60.70;100955.94;4975957;28;45347;-85
2021/06/27 09:58:17;;;;;;;;;20.50;18.75;;;;;22.86;61.03;100959.56;4994774;28;46266;-81
2021/06/27 10:00:43;;;;;;;;;23.00;20.50;;;;;22.70;61.51;100954.31;4994032;27;45510;-79
2021/06/27 10:03:10;;;;;;;;;23.75;22.25;;;;;22.62;61.82;100955.25;4976396;28;45684;-76
2021/06/27 10:05:36;;;;;;;;;26.75;21.50;;;;;22.52;61.67;100959.66;4992669;27;45538;-79
2021/06/27 10:08:02;;;;;;;;;20.50;19.50;;;;;22.49;62.14;100965.84;4975278;28;46884;-80
2021/06/27 10:10:28;;;;;;;;;21.75;20.00;;;;;22.46;62.03;100970.25;4993146;28;45827;-81
2021/06/27 10:12:54;;;;;;;;;19.75;18.75;;;;;22.44;62.12;100970.22;4992715;28;45670;-81
2021/06/27 10:15:19;;;;;;;;;21.75;19.00;;;;;22.40;62.18;100966.72;4975783;28;45441;-81
2021/06/27 10:17:49;;;;;;;;;22.75;20.25;;;;;22.43;62.99;100979.03;4993833;28;45515;-78
2021/06/27 10:20:16;;;;;;;;;24.50;22.75;;;;;22.40;62.81;100968.47;4994839;27;45329;-79
2021/06/27 10:22:43;;;;;;;;;21.00;20.50;;;;;22.44;62.79;100980.78;4977410;28;45350;-81
2021/06/27 10:25:11;;;;;;;;;24.25;23.25;;;;;22.49;63.15;100984.31;4975725;28;45611;-80
2021/06/27 10:27:37;;;;;;;;;30.75;29.75;;;;;22.49;64.14;100979.03;4993354;28;45580;-81
2021/06/27 10:30:07;;;;;;;;;27.00;23.50;;;;;22.73;63.91;100987.78;4992833;28;45465;-80
2021/06/27 10:32:42;;;;;;;;;45.50;36.75;;;;;22.93;62.06;100986.84;4992490;28;45443;-83
2021/06/27 10:35:09;;;;;;;;;33.00;29.25;;;;;22.87;61.74;100990.38;4992193;28;45403;-83
2021/06/27 10:37:45;;;;;;;;;26.00;22.00;;;;;22.81;61.00;100993.00;4993823;28;45418;-83
2021/06/27 10:40:17;;;;;;;;;21.75;19.25;;;;;22.74;61.79;100989.50;4996247;28;45358;-85
2021/06/27 10:42:49;;;;;;;;;20.75;19.75;;;;;22.76;62.13;100992.16;4975302;28;45438;-80
2021/06/27 10:45:19;;;;;;;;;21.50;19.75;;;;;22.76;62.54;100981.59;4989611;28;45632;-81
2021/06/27 10:47:45;;;;;;;;;22.25;21.50;;;;;22.86;62.83;100985.97;4997473;28;46264;-83
2021/06/27 10:50:12;;;;;;;;;23.00;22.00;;;;;22.93;62.63;100997.38;4994716;28;45461;-81
2021/06/27 10:52:58;;;;;;;;;23.50;21.50;;;;;22.96;62.42;100990.34;4992533;28;45350;-79
2021/06/27 10:55:41;;;;;;;;;23.50;21.75;;;;;22.96;62.28;100990.34;4991756;28;45235;-81
2021/06/27 10:58:34;;;;;;;;;26.00;20.25;;;;;23.02;61.52;100985.00;4992028;28;45958;-81
2021/06/27 11:01:01;;;;;;;;;27.50;23.50;;;;;23.04;61.73;100985.03;4990825;28;45593;-82
2021/06/27 11:03:26;;;;;;;;;25.75;22.75;;;;;23.11;62.47;100994.66;4993172;28;45551;-83
2021/06/27 11:05:56;;;;;;;;;21.75;19.75;;;;;23.13;62.14;100990.25;4992475;27;45508;-82
2021/06/27 11:08:30;;;;;;;;;19.50;18.25;;;;;23.16;61.74;100994.66;4992612;28;46617;-83
2021/06/27 11:11:03;;;;;;;;;21.25;19.50;;;;;23.19;61.52;101003.47;4983883;28;45446;-83